createdAt,value
2022-08-11T00:01:33.344Z,37.14
2022-08-11T00:04:36.140Z,37.48
2022-08-11T00:07:42.629Z,37.98
2022-08-11T00:10:44.478Z,38.96
2022-08-11T00:13:47.007Z,38.34
2022-08-11T00:17:00.259Z,36.96
2022-08-11T00:20:11.939Z,37.89
2022-08-11T00:23:17.380Z,38.19
2022-08-11T00:26:21.210Z,37.42
2022-08-11T00:29:23.122Z,39.08
2022-08-11T00:32:24.938Z,39.12
2022-08-11T00:35:50.820Z,40.04
2022-08-11T00:38:51.011Z,39.48
2022-08-11T00:42:02.481Z,39.28
2022-08-11T00:45:13.584Z,39.62
2022-08-11T00:48:15.499Z,39.75
2022-08-11T00:51:24.312Z,39.18
2022-08-11T00:54:32.890Z,37.86
2022-08-11T00:57:57.141Z,38.32
2022-08-11T01:01:04.592Z,38.66
2022-08-11T01:04:25.141Z,37.61
2022-08-11T01:08:02.011Z,38.22
2022-08-11T01:11:04.066Z,37.77
2022-08-11T01:14:33.682Z,38.32
2022-08-11T01:17:55.159Z,38.03
2022-08-11T01:21:03.381Z,38.46
2022-08-11T01:24:05.550Z,39.38
2022-08-11T01:27:18.771Z,39.53
2022-08-11T01:30:40.652Z,38.38
2022-08-11T01:33:42.502Z,38.65
2022-08-11T01:36:44.320Z,39.65
2022-08-11T01:39:52.561Z,39.87
2022-08-11T01:43:16.317Z,41.13
2022-08-11T01:46:27.006Z,40.22
2022-08-11T01:50:09.862Z,38.79
2022-08-11T01:53:11.759Z,39.12
2022-08-11T01:56:33.301Z,39.69
2022-08-11T01:59:36.421Z,42.12
2022-08-11T02:02:47.759Z,40.38
2022-08-11T02:06:30.706Z,40.47
2022-08-11T02:09:49.523Z,39.99
2022-08-11T02:12:55.813Z,39.06
2022-08-11T02:16:17.714Z,38.84
2022-08-11T02:19:46.118Z,40.60
2022-08-11T02:24:06.917Z,38.64
2022-08-11T02:27:09.973Z,39.05
2022-08-11T02:30:13.074Z,39.33
2022-08-11T02:33:24.875Z,39.31
2022-08-11T02:36:36.654Z,41.09
2022-08-11T02:39:40.907Z,41.09
2022-08-11T02:42:45.876Z,41.47
2022-08-11T02:45:47.938Z,40.63
2022-08-11T02:49:08.490Z,39.82
2022-08-11T02:52:29.329Z,40.45
2022-08-11T02:55:48.030Z,40.93
2022-08-11T02:59:22.031Z,40.53
2022-08-11T03:02:33.195Z,42.43
2022-08-11T03:05:38.142Z,41.42
2022-08-11T03:08:58.851Z,42.04
2022-08-11T03:12:31.630Z,42.44
2022-08-11T03:16:01.037Z,41.21
2022-08-11T03:19:11.266Z,40.58
2022-08-11T03:22:17.512Z,42.74
2022-08-11T03:25:31.690Z,42.84
2022-08-11T03:28:38.384Z,42.29
2022-08-11T03:31:48.254Z,42.13
2022-08-11T03:34:50.103Z,42.29
2022-08-11T03:37:55.614Z,42.48
2022-08-11T03:41:59.279Z,42.71
2022-08-11T03:45:05.555Z,43.08
2022-08-11T03:48:14.245Z,42.51
2022-08-11T03:51:27.621Z,42.65
2022-08-11T03:54:59.322Z,43.14
2022-08-11T03:58:10.145Z,43.30
2022-08-11T04:01:32.403Z,42.10
2022-08-11T04:04:35.709Z,43.20
2022-08-11T04:07:40.659Z,42.38
2022-08-11T04:11:01.079Z,42.29
2022-08-11T04:14:42.487Z,43.17
2022-08-11T04:18:02.491Z,41.78
2022-08-11T04:21:22.809Z,43.11
2022-08-11T04:24:54.734Z,42.79
2022-08-11T04:28:28.513Z,43.08
2022-08-11T04:31:50.564Z,42.49
2022-08-11T04:35:08.746Z,42.34
2022-08-11T04:38:25.929Z,41.60
2022-08-11T04:42:09.381Z,40.79
2022-08-11T04:45:20.602Z,41.27
2022-08-11T04:48:43.570Z,39.10
2022-08-11T04:52:08.571Z,40.58
2022-08-11T04:55:48.135Z,38.82
2022-08-11T04:59:23.195Z,38.80
2022-08-11T05:02:31.195Z,38.07
2022-08-11T05:05:56.168Z,39.70
2022-08-11T05:09:14.858Z,38.17
2022-08-11T05:12:20.980Z,36.64
2022-08-11T05:15:54.682Z,37.58
2022-08-11T05:19:15.996Z,36.25
2022-08-11T05:22:37.317Z,35.11
2022-08-11T05:26:43.687Z,35.64
2022-08-11T05:29:58.859Z,34.63
2022-08-11T05:33:19.956Z,37.54
2022-08-11T05:36:43.658Z,37.88
2022-08-11T05:40:05.749Z,36.68
2022-08-11T05:43:31.005Z,35.38
2022-08-11T05:46:58.362Z,35.65
2022-08-11T05:50:19.122Z,36.51
2022-08-11T05:53:51.987Z,35.71
2022-08-11T05:56:58.255Z,33.71
2022-08-11T06:00:02.467Z,31.69
2022-08-11T06:03:07.681Z,34.41
2022-08-11T06:06:09.556Z,32.72
2022-08-11T06:09:14.617Z,33.42
2022-08-11T06:12:24.065Z,31.80
2022-08-11T06:15:26.104Z,30.27
2022-08-11T06:18:28.177Z,28.81
2022-08-11T06:21:32.236Z,27.11
2022-08-11T06:24:34.982Z,26.61
2022-08-11T06:27:37.428Z,24.89
2022-08-11T06:30:40.554Z,28.25
2022-08-11T06:33:45.608Z,30.44
2022-08-11T06:36:51.732Z,30.96
2022-08-11T06:39:56.904Z,27.48
2022-08-11T06:43:03.123Z,27.53
2022-08-11T06:46:07.019Z,26.99
2022-08-11T06:49:29.582Z,26.23
2022-08-11T06:52:35.839Z,28.08
2022-08-11T06:56:02.357Z,27.16
2022-08-11T06:59:22.890Z,27.86
2022-08-11T07:02:31.226Z,27.00
2022-08-11T07:05:44.058Z,25.77
2022-08-11T07:09:10.773Z,25.00
2022-08-11T07:12:41.562Z,23.60
2022-08-11T07:16:10.868Z,22.59
2022-08-11T07:19:26.445Z,21.52
2022-08-11T07:22:47.441Z,22.85
2022-08-11T07:26:10.896Z,21.74
2022-08-11T07:29:14.228Z,21.22
2022-08-11T07:32:17.719Z,21.77
2022-08-11T07:35:25.151Z,20.57
2022-08-11T07:38:43.285Z,22.24
2022-08-11T07:41:47.675Z,21.33
2022-08-11T07:45:08.493Z,22.86
2022-08-11T07:48:29.871Z,23.95
2022-08-11T07:51:50.726Z,23.00
2022-08-11T07:54:52.807Z,22.40
2022-08-11T07:58:16.840Z,22.45
2022-08-11T08:01:41.181Z,19.93
2022-08-11T08:05:01.845Z,22.07
2022-08-11T08:08:22.364Z,20.47
2022-08-11T08:11:43.725Z,20.97
2022-08-11T08:15:04.481Z,19.66
2022-08-11T08:18:20.753Z,22.73
2022-08-11T08:21:29.169Z,19.40
2022-08-11T08:24:32.918Z,20.07
2022-08-11T08:27:35.839Z,21.62
2022-08-11T08:30:51.723Z,21.60
2022-08-11T08:33:53.755Z,23.06
2022-08-11T08:36:56.076Z,21.70
2022-08-11T08:39:58.833Z,24.13
2022-08-11T08:43:08.014Z,25.58
2022-08-11T08:46:10.264Z,24.54
2022-08-11T08:49:16.363Z,25.83
2022-08-11T08:52:31.843Z,22.62
2022-08-11T08:55:37.077Z,22.05
2022-08-11T08:58:39.480Z,19.94
2022-08-11T09:01:43.378Z,18.52
2022-08-11T09:04:49.461Z,18.48
2022-08-11T09:07:51.612Z,19.10
2022-08-11T09:11:13.965Z,18.77
2022-08-11T09:14:54.909Z,16.52
2022-08-11T09:18:03.788Z,18.19
2022-08-11T09:21:06.063Z,16.81
2022-08-11T09:24:26.746Z,16.44
2022-08-11T09:27:31.060Z,17.50
2022-08-11T09:30:33.114Z,16.02
2022-08-11T09:33:36.849Z,15.20
2022-08-11T09:36:57.742Z,13.59
2022-08-11T09:40:18.126Z,14.20
2022-08-11T09:43:40.381Z,13.46
2022-08-11T09:46:42.360Z,16.97
2022-08-11T09:49:49.253Z,18.54
2022-08-11T09:53:16.905Z,17.96
2022-08-11T09:56:33.792Z,19.31
2022-08-11T09:59:36.657Z,21.03
2022-08-11T10:02:46.088Z,22.63
2022-08-11T10:06:08.118Z,24.22
2022-08-11T10:09:10.266Z,22.86
2022-08-11T10:12:13.911Z,18.74
2022-08-11T10:15:34.702Z,20.87
2022-08-11T10:18:51.517Z,19.74
2022-08-11T10:22:12.246Z,19.03
2022-08-11T10:25:33.319Z,20.44
2022-08-11T10:29:02.182Z,20.10
2022-08-11T10:32:17.457Z,18.93
2022-08-11T10:35:20.706Z,17.52
2022-08-11T10:38:22.569Z,18.08
2022-08-11T10:42:06.419Z,20.79
2022-08-11T10:45:26.040Z,21.02
2022-08-11T10:48:28.560Z,20.05
2022-08-11T10:51:51.941Z,20.74
2022-08-11T10:55:14.415Z,20.28
2022-08-11T10:58:35.111Z,19.80
2022-08-11T11:01:44.195Z,21.72
2022-08-11T11:04:57.991Z,19.94
2022-08-11T11:08:28.425Z,21.58
2022-08-11T11:11:50.059Z,20.04
2022-08-11T11:15:16.112Z,21.10
2022-08-11T11:18:24.395Z,19.48
2022-08-11T11:21:26.364Z,15.85
2022-08-11T11:24:40.256Z,14.28
2022-08-11T11:27:48.636Z,15.13
2022-08-11T11:30:57.154Z,16.72
2022-08-11T11:34:12.286Z,14.19
2022-08-11T11:37:16.236Z,17.36
2022-08-11T11:40:21.799Z,17.49
2022-08-11T11:43:32.573Z,18.08
2022-08-11T11:46:39.069Z,19.15
2022-08-11T11:49:44.016Z,19.40
2022-08-11T11:52:46.325Z,20.05
2022-08-11T11:55:48.195Z,20.96
2022-08-11T11:59:08.807Z,20.51
2022-08-11T12:02:13.761Z,20.50
2022-08-11T12:05:15.689Z,20.87
2022-08-11T12:08:17.754Z,20.98
2022-08-11T12:11:39.099Z,20.65
2022-08-11T12:14:41.085Z,18.32
2022-08-11T12:17:43.004Z,16.64
2022-08-11T12:20:45.451Z,15.24
2022-08-11T12:24:06.550Z,15.47
2022-08-11T12:27:25.345Z,17.20
2022-08-11T12:30:28.146Z,17.79
2022-08-11T12:33:30.671Z,17.49
2022-08-11T12:36:34.615Z,18.45
2022-08-11T12:40:17.007Z,19.13
2022-08-11T12:43:41.414Z,19.42
2022-08-11T12:46:44.355Z,19.36
2022-08-11T12:50:22.964Z,20.30
2022-08-11T12:53:29.166Z,20.09
2022-08-11T12:56:52.061Z,19.69
2022-08-11T13:00:12.885Z,20.05
2022-08-11T13:03:33.828Z,18.77
2022-08-11T13:06:37.645Z,19.01
2022-08-11T13:09:39.885Z,19.54
2022-08-11T13:12:50.934Z,19.85
2022-08-11T13:15:53.327Z,20.54
2022-08-11T13:18:55.865Z,21.08
2022-08-11T13:21:58.046Z,20.70
2022-08-11T13:25:00.462Z,21.89
2022-08-11T13:28:03.478Z,20.84
2022-08-11T13:31:11.408Z,21.38
2022-08-11T13:34:15.599Z,21.76
2022-08-11T13:37:21.049Z,21.32
2022-08-11T13:40:55.237Z,22.97
2022-08-11T13:43:58.342Z,22.65
2022-08-11T13:47:02.657Z,24.12
2022-08-11T13:50:05.843Z,24.28
2022-08-11T13:53:07.819Z,24.18
2022-08-11T13:56:09.805Z,23.83
2022-08-11T13:59:12.298Z,22.68
2022-08-11T14:02:28.079Z,23.93
2022-08-11T14:05:33.641Z,23.07
2022-08-11T14:08:38.521Z,23.77
2022-08-11T14:12:21.551Z,22.43
2022-08-11T14:15:28.077Z,23.30
2022-08-11T14:18:30.784Z,22.66
2022-08-11T14:21:55.026Z,23.15
2022-08-11T14:24:57.482Z,22.26
2022-08-11T14:28:31.146Z,22.35
2022-08-11T14:31:21.734Z,21.84
2022-08-11T14:34:24.377Z,21.64
2022-08-11T14:37:26.499Z,21.38
2022-08-11T14:40:47.200Z,21.74
2022-08-11T14:44:14.048Z,22.42
2022-08-11T14:47:24.350Z,23.38
2022-08-11T14:50:27.933Z,23.68
2022-08-11T14:53:29.880Z,21.65
2022-08-11T14:56:37.330Z,23.12
2022-08-11T14:59:39.261Z,21.83
2022-08-11T15:03:00.206Z,21.88
2022-08-11T15:06:02.830Z,21.92
2022-08-11T15:09:08.847Z,23.11
2022-08-11T15:12:31.586Z,23.00
2022-08-11T15:15:53.909Z,22.95
2022-08-11T15:18:55.875Z,23.80
2022-08-11T15:22:16.461Z,22.75
2022-08-11T15:25:19.953Z,23.43
2022-08-11T15:28:40.671Z,23.18
2022-08-11T15:31:49.221Z,23.46
2022-08-11T15:35:15.043Z,23.31
2022-08-11T15:38:17.042Z,23.83
2022-08-11T15:41:37.861Z,23.15
2022-08-11T15:45:03.286Z,23.42
2022-08-11T15:48:10.564Z,23.31
2022-08-11T15:51:14.383Z,23.45
2022-08-11T15:54:21.145Z,24.49
2022-08-11T15:57:41.850Z,24.70
2022-08-11T16:01:08.657Z,24.24
2022-08-11T16:04:15.038Z,24.63
2022-08-11T16:07:26.719Z,25.23
2022-08-11T16:10:29.082Z,25.20
2022-08-11T16:13:37.053Z,24.85
2022-08-11T16:16:39.457Z,25.52
2022-08-11T16:19:41.496Z,25.92
2022-08-11T16:23:00.345Z,26.47
2022-08-11T16:27:10.017Z,25.78
2022-08-11T16:29:28.174Z,26.67
2022-08-11T16:32:30.087Z,27.04
2022-08-11T16:35:54.410Z,25.96
2022-08-11T16:38:56.669Z,26.40
2022-08-11T16:43:09.018Z,25.81
2022-08-11T16:45:58.831Z,25.26
2022-08-11T16:49:03.066Z,26.02
2022-08-11T16:52:08.000Z,25.87
2022-08-11T16:55:10.236Z,25.32
2022-08-11T16:58:31.005Z,25.40
2022-08-11T17:01:33.673Z,25.90
2022-08-11T17:05:01.768Z,26.13
2022-08-11T17:08:22.795Z,26.04
2022-08-11T17:11:45.653Z,26.57
2022-08-11T17:14:52.635Z,27.06
2022-08-11T17:17:54.494Z,28.39
2022-08-11T17:20:56.465Z,30.31
2022-08-11T17:24:08.440Z,31.16
2022-08-11T17:27:11.068Z,32.54
2022-08-11T17:30:14.904Z,32.72
2022-08-11T17:33:35.771Z,32.98
2022-08-11T17:36:41.609Z,33.37
2022-08-11T17:39:45.385Z,33.98
2022-08-11T17:43:06.117Z,33.25
2022-08-11T17:46:08.345Z,34.57
2022-08-11T17:49:11.487Z,34.00
2022-08-11T17:52:35.419Z,33.73
2022-08-11T17:55:56.079Z,33.62
2022-08-11T17:59:18.454Z,34.21
2022-08-11T18:02:40.757Z,33.17
2022-08-11T18:05:43.733Z,33.82
2022-08-11T18:09:05.530Z,34.04
2022-08-11T18:12:26.967Z,34.32
2022-08-11T18:15:50.018Z,33.64
2022-08-11T18:19:16.311Z,34.64
2022-08-11T18:22:44.264Z,34.03
2022-08-11T18:26:07.533Z,34.33
2022-08-11T18:29:28.513Z,33.40
2022-08-11T18:32:50.144Z,32.26
2022-08-11T18:36:16.691Z,33.18
2022-08-11T18:39:37.328Z,31.91
2022-08-11T18:42:58.229Z,33.26
2022-08-11T18:46:23.686Z,32.78
2022-08-11T18:50:02.148Z,34.70
2022-08-11T18:53:24.572Z,33.70
2022-08-11T18:56:45.317Z,33.52
2022-08-11T19:00:06.146Z,34.02
2022-08-11T19:03:26.968Z,33.77
2022-08-11T19:06:47.401Z,32.62
2022-08-11T19:10:07.909Z,31.53
2022-08-11T19:13:28.305Z,32.23
2022-08-11T19:16:48.821Z,34.44
2022-08-11T19:20:09.061Z,34.23
2022-08-11T19:23:30.005Z,34.58
2022-08-11T19:26:53.083Z,35.13
2022-08-11T19:30:14.497Z,34.01
2022-08-11T19:33:59.784Z,35.09
2022-08-11T19:37:15.334Z,34.29
2022-08-11T19:40:35.846Z,35.47
2022-08-11T19:43:56.301Z,34.86
2022-08-11T19:47:16.904Z,34.35
2022-08-11T19:50:37.813Z,34.00
2022-08-11T19:54:00.946Z,35.10
2022-08-11T19:57:22.410Z,33.70
2022-08-11T20:00:43.130Z,34.38
2022-08-11T20:04:03.694Z,34.61
2022-08-11T20:07:24.079Z,35.06
2022-08-11T20:10:44.410Z,34.79
2022-08-11T20:14:05.142Z,34.21
2022-08-11T20:17:26.130Z,34.88
2022-08-11T20:20:46.638Z,34.34
2022-08-11T20:24:08.489Z,34.26
2022-08-11T20:27:29.275Z,35.55
2022-08-11T20:30:51.841Z,34.62
2022-08-11T20:34:13.153Z,35.38
2022-08-11T20:37:33.981Z,35.28
2022-08-11T20:40:54.495Z,35.88
2022-08-11T20:44:15.403Z,35.60
2022-08-11T20:47:56.499Z,35.62
2022-08-11T20:51:16.621Z,35.51
2022-08-11T20:54:38.270Z,33.95
2022-08-11T20:58:05.821Z,35.32
2022-08-11T21:01:39.001Z,34.56
2022-08-11T21:05:01.841Z,35.82
2022-08-11T21:08:25.349Z,33.97
2022-08-11T21:11:46.012Z,34.46
2022-08-11T21:15:06.548Z,35.00
2022-08-11T21:18:28.217Z,35.34
2022-08-11T21:21:49.778Z,36.29
2022-08-11T21:25:15.486Z,37.46
2022-08-11T21:28:36.073Z,37.14
2022-08-11T21:31:56.532Z,37.00
2022-08-11T21:35:16.851Z,38.03
2022-08-11T21:38:37.536Z,37.61
2022-08-11T21:41:57.808Z,36.42
2022-08-11T21:45:18.284Z,37.10
2022-08-11T21:48:38.584Z,39.12
2022-08-11T21:51:59.115Z,39.40
2022-08-11T21:55:19.701Z,38.54
2022-08-11T21:58:40.299Z,39.02
2022-08-11T22:02:01.368Z,37.29
2022-08-11T22:05:22.071Z,37.44
2022-08-11T22:08:42.379Z,36.93
2022-08-11T22:12:35.222Z,37.96
2022-08-11T22:15:43.081Z,36.93
2022-08-11T22:19:04.555Z,37.01
2022-08-11T22:22:26.334Z,38.17
2022-08-11T22:25:55.115Z,37.83
2022-08-11T22:29:20.288Z,37.97
2022-08-11T22:32:59.138Z,38.70
2022-08-11T22:36:19.403Z,38.77
2022-08-11T22:39:39.987Z,38.91
2022-08-11T22:43:01.200Z,39.61
2022-08-11T22:46:22.117Z,38.83
2022-08-11T22:49:57.592Z,38.45
2022-08-11T22:53:18.921Z,39.39
2022-08-11T22:56:39.321Z,38.15
2022-08-11T22:59:59.710Z,37.36
2022-08-11T23:03:34.229Z,38.12
2022-08-11T23:06:58.875Z,39.24
2022-08-11T23:10:19.520Z,38.43
2022-08-11T23:13:40.094Z,38.93
2022-08-11T23:17:00.602Z,38.82
2022-08-11T23:20:28.826Z,39.11
2022-08-11T23:23:50.834Z,39.12
2022-08-11T23:27:11.478Z,37.96
2022-08-11T23:30:31.777Z,38.72
2022-08-11T23:33:52.322Z,39.04
2022-08-11T23:37:13.137Z,40.62
2022-08-11T23:40:34.125Z,40.23
2022-08-11T23:43:54.675Z,40.19
2022-08-11T23:47:17.902Z,40.05
2022-08-11T23:50:38.449Z,40.02
2022-08-11T23:53:59.024Z,40.86
2022-08-11T23:57:19.494Z,41.52
